createdAt,value
2023-06-05T00:00:20.285Z,48.20
2023-06-05T00:02:47.441Z,48.40
2023-06-05T00:05:16.435Z,48.60
2023-06-05T00:07:43.306Z,48.80
2023-06-05T00:10:10.799Z,49.00
2023-06-05T00:12:38.152Z,49.20
2023-06-05T00:15:06.161Z,49.30
2023-06-05T00:17:33.303Z,49.70
2023-06-05T00:20:00.196Z,49.90
2023-06-05T00:22:29.259Z,50.10
2023-06-05T00:24:56.519Z,50.20
2023-06-05T00:27:23.451Z,50.40
2023-06-05T00:29:51.026Z,50.50
2023-06-05T00:32:18.008Z,50.60
2023-06-05T00:34:44.772Z,50.70
2023-06-05T00:37:14.241Z,51.00
2023-06-05T00:39:42.091Z,50.90
2023-06-05T00:42:12.343Z,51.00
2023-06-05T00:44:41.525Z,50.90
2023-06-05T00:47:08.576Z,51.20
2023-06-05T00:49:35.688Z,51.40
2023-06-05T00:52:02.958Z,51.60
2023-06-05T00:54:30.812Z,51.80
2023-06-05T00:56:57.930Z,51.60
2023-06-05T00:59:24.881Z,51.80
2023-06-05T01:01:53.562Z,51.80
2023-06-05T01:04:20.471Z,51.80
2023-06-05T01:06:47.407Z,52.00
2023-06-05T01:09:14.643Z,52.30
2023-06-05T01:11:59.879Z,52.50
2023-06-05T01:14:31.820Z,52.80
2023-06-05T01:17:02.007Z,53.10
2023-06-05T01:19:32.944Z,53.20
2023-06-05T01:22:01.229Z,53.40
2023-06-05T01:24:29.048Z,53.70
2023-06-05T01:27:01.673Z,54.00
2023-06-05T01:30:09.169Z,54.00
2023-06-05T01:33:13.632Z,53.90
2023-06-05T01:35:42.768Z,54.00
2023-06-05T01:38:12.200Z,54.00
2023-06-05T01:40:40.652Z,54.40
2023-06-05T01:43:09.992Z,54.70
2023-06-05T01:45:41.265Z,54.90
2023-06-05T01:48:11.720Z,55.10
2023-06-05T01:50:39.266Z,55.60
2023-06-05T01:53:06.936Z,55.60
2023-06-05T01:55:34.882Z,56.10
2023-06-05T01:58:01.977Z,56.30
2023-06-05T02:00:29.605Z,56.70
2023-06-05T02:02:56.854Z,56.90
2023-06-05T02:05:23.754Z,57.00
2023-06-05T02:07:55.345Z,57.30
2023-06-05T02:10:22.964Z,57.50
2023-06-05T02:12:49.964Z,57.80
2023-06-05T02:15:17.870Z,58.00
2023-06-05T02:17:46.435Z,58.10
2023-06-05T02:20:13.823Z,58.20
2023-06-05T02:22:45.353Z,58.30
2023-06-05T02:25:12.871Z,57.40
2023-06-05T02:27:39.754Z,57.70
2023-06-05T02:30:08.082Z,58.40
2023-06-05T02:32:37.205Z,58.70
2023-06-05T02:35:05.622Z,58.90
2023-06-05T02:37:37.979Z,58.90
2023-06-05T02:40:08.798Z,59.10
2023-06-05T02:42:36.830Z,59.40
2023-06-05T02:45:05.263Z,59.70
2023-06-05T02:47:32.927Z,59.90
2023-06-05T02:50:01.070Z,60.00
2023-06-05T02:52:33.176Z,60.00
2023-06-05T02:55:01.021Z,60.40
2023-06-05T02:57:28.134Z,60.60
2023-06-05T02:59:56.514Z,60.70
2023-06-05T03:02:24.328Z,60.70
2023-06-05T03:04:54.267Z,60.70
2023-06-05T03:07:24.073Z,60.90
2023-06-05T03:09:51.712Z,60.80
2023-06-05T03:12:18.801Z,61.40
2023-06-05T03:14:45.814Z,62.00
2023-06-05T03:17:13.002Z,62.30
2023-06-05T03:19:41.099Z,62.40
2023-06-05T03:22:08.232Z,62.60
2023-06-05T03:24:38.702Z,62.60
2023-06-05T03:27:07.126Z,62.20
2023-06-05T03:29:34.121Z,62.00
2023-06-05T03:32:01.314Z,62.00
2023-06-05T03:34:30.844Z,62.00
2023-06-05T03:37:00.883Z,62.00
2023-06-05T03:39:28.650Z,62.10
2023-06-05T03:41:56.936Z,62.30
2023-06-05T03:44:27.259Z,62.70
2023-06-05T03:46:55.042Z,62.70
2023-06-05T03:49:26.436Z,62.90
2023-06-05T03:51:53.261Z,63.00
2023-06-05T03:54:20.048Z,62.80
2023-06-05T03:56:50.911Z,62.80
2023-06-05T03:59:23.490Z,63.00
2023-06-05T04:01:57.890Z,64.90
2023-06-05T04:04:25.973Z,63.60
2023-06-05T04:06:55.735Z,63.50
2023-06-05T04:09:24.279Z,63.30
2023-06-05T04:11:51.700Z,63.40
2023-06-05T04:14:18.756Z,63.30
2023-06-05T04:16:45.838Z,63.20
2023-06-05T04:19:18.250Z,64.30
2023-06-05T04:21:48.189Z,64.50
2023-06-05T04:24:15.192Z,63.60
2023-06-05T04:26:43.378Z,63.90
2023-06-05T04:29:16.774Z,64.10
2023-06-05T04:31:46.702Z,64.30
2023-06-05T04:34:13.612Z,64.30
2023-06-05T04:36:44.315Z,64.40
2023-06-05T04:39:20.662Z,64.70
2023-06-05T04:41:56.960Z,64.50
2023-06-05T04:44:27.170Z,64.60
2023-06-05T04:46:54.345Z,64.80
2023-06-05T04:49:23.916Z,65.00
2023-06-05T04:51:54.356Z,65.40
2023-06-05T04:54:22.267Z,65.70
2023-06-05T04:56:50.770Z,65.80
2023-06-05T04:59:19.352Z,65.80
2023-06-05T05:01:46.483Z,65.90
2023-06-05T05:04:14.071Z,65.70
2023-06-05T05:06:42.349Z,66.00
2023-06-05T05:09:10.220Z,66.20
2023-06-05T05:11:37.365Z,66.30
2023-06-05T05:14:04.291Z,67.80
2023-06-05T05:16:31.191Z,66.50
2023-06-05T05:18:58.120Z,66.20
2023-06-05T05:21:26.162Z,66.70
2023-06-05T05:23:53.761Z,66.90
2023-06-05T05:26:21.234Z,66.90
2023-06-05T05:28:48.222Z,66.50
2023-06-05T05:31:15.101Z,66.60
2023-06-05T05:33:42.055Z,66.00
2023-06-05T05:36:08.860Z,65.40
2023-06-05T05:38:35.667Z,65.00
2023-06-05T05:41:02.514Z,64.90
2023-06-05T05:43:29.373Z,65.20
2023-06-05T05:45:56.355Z,65.60
2023-06-05T05:48:24.064Z,65.90
2023-06-05T05:50:51.298Z,67.00
2023-06-05T05:53:18.125Z,67.20
2023-06-05T05:55:45.000Z,66.70
2023-06-05T05:58:11.876Z,66.40
2023-06-05T06:00:39.042Z,66.00
2023-06-05T06:03:08.009Z,65.80
2023-06-05T06:05:36.876Z,64.90
2023-06-05T06:08:04.431Z,64.30
2023-06-05T06:10:31.973Z,63.90
2023-06-05T06:12:59.124Z,63.60
2023-06-05T06:15:26.412Z,63.20
2023-06-05T06:17:53.256Z,62.90
2023-06-05T06:20:20.310Z,62.90
2023-06-05T06:22:47.108Z,62.60
2023-06-05T06:25:17.022Z,62.50
2023-06-05T06:27:49.257Z,62.40
2023-06-05T06:30:16.685Z,62.60
2023-06-05T06:32:43.532Z,62.50
2023-06-05T06:35:10.679Z,62.70
2023-06-05T06:37:37.892Z,62.80
2023-06-05T06:40:09.861Z,62.70
2023-06-05T06:42:37.126Z,61.70
2023-06-05T06:45:19.042Z,60.80
2023-06-05T06:47:55.412Z,60.60
2023-06-05T06:50:33.045Z,60.50
2023-06-05T06:52:59.923Z,60.30
2023-06-05T06:55:27.675Z,60.50
2023-06-05T06:57:54.544Z,60.70
2023-06-05T07:00:21.904Z,60.80
2023-06-05T07:02:49.327Z,60.50
2023-06-05T07:05:16.770Z,60.50
2023-06-05T07:07:43.647Z,60.70
2023-06-05T07:10:10.864Z,60.70
2023-06-05T07:12:38.249Z,60.50
2023-06-05T07:15:06.229Z,60.20
2023-06-05T07:17:33.173Z,60.00
2023-06-05T07:20:00.108Z,60.00
2023-06-05T07:22:29.225Z,59.80
2023-06-05T07:24:56.263Z,59.00
2023-06-05T07:27:23.921Z,58.30
2023-06-05T07:29:51.460Z,58.20
2023-06-05T07:32:19.710Z,57.90
2023-06-05T07:34:46.580Z,57.60
2023-06-05T07:37:13.529Z,57.60
2023-06-05T07:39:40.464Z,57.70
2023-06-05T07:42:07.663Z,58.20
2023-06-05T07:44:34.730Z,58.20
2023-06-05T07:47:01.568Z,58.00
2023-06-05T07:49:31.531Z,57.90
2023-06-05T07:51:58.660Z,57.90
2023-06-05T07:54:25.521Z,58.30
2023-06-05T07:56:52.486Z,58.60
2023-06-05T07:59:25.739Z,58.20
2023-06-05T08:01:53.123Z,58.10
2023-06-05T08:04:21.014Z,57.70
2023-06-05T08:06:48.877Z,57.70
2023-06-05T08:09:15.808Z,57.70
2023-06-05T08:11:45.787Z,58.40
2023-06-05T08:14:15.583Z,56.70
2023-06-05T08:16:42.478Z,56.60
2023-06-05T08:19:09.423Z,55.90
2023-06-05T08:21:38.644Z,54.80
2023-06-05T08:24:05.737Z,54.80
2023-06-05T08:26:32.836Z,54.70
2023-06-05T08:29:00.821Z,54.40
2023-06-05T08:31:27.696Z,53.80
2023-06-05T08:33:54.668Z,53.80
2023-06-05T08:36:22.252Z,53.30
2023-06-05T08:38:49.129Z,53.00
2023-06-05T08:41:17.266Z,53.60
2023-06-05T08:43:45.658Z,53.40
2023-06-05T08:46:13.646Z,53.30
2023-06-05T08:48:45.903Z,52.70
2023-06-05T08:51:17.192Z,52.40
2023-06-05T08:53:55.753Z,52.70
2023-06-05T08:56:22.728Z,51.60
2023-06-05T08:58:50.857Z,50.60
2023-06-05T09:01:19.146Z,52.00
2023-06-05T09:03:46.012Z,50.80
2023-06-05T09:06:13.085Z,49.50
2023-06-05T09:08:40.337Z,49.50
2023-06-05T09:11:22.587Z,50.20
2023-06-05T09:13:49.887Z,48.30
2023-06-05T09:16:21.070Z,48.40
2023-06-05T09:18:58.928Z,46.90
2023-06-05T09:21:33.693Z,46.30
2023-06-05T09:24:22.245Z,44.80
2023-06-05T09:27:09.467Z,44.70
2023-06-05T09:29:41.099Z,44.20
2023-06-05T09:32:09.101Z,44.30
2023-06-05T09:34:42.412Z,43.80
2023-06-05T09:37:11.459Z,43.70
2023-06-05T09:39:45.875Z,43.10
2023-06-05T09:42:12.865Z,42.90
2023-06-05T09:44:39.681Z,43.20
2023-06-05T09:47:12.795Z,42.60
2023-06-05T09:49:42.847Z,42.40
2023-06-05T09:52:14.619Z,42.20
2023-06-05T09:54:45.482Z,41.40
2023-06-05T09:57:13.312Z,41.50
2023-06-05T09:59:55.291Z,42.10
2023-06-05T10:02:27.034Z,41.30
2023-06-05T10:05:00.091Z,41.90
2023-06-05T10:07:28.134Z,40.70
2023-06-05T10:09:56.013Z,41.20
2023-06-05T10:12:25.004Z,41.10
2023-06-05T10:14:53.439Z,41.30
2023-06-05T10:17:21.811Z,41.20
2023-06-05T10:19:48.862Z,41.50
2023-06-05T10:22:19.493Z,41.80
2023-06-05T10:24:52.642Z,41.20
2023-06-05T10:27:57.950Z,40.90
2023-06-05T10:30:46.286Z,40.50
2023-06-05T10:33:22.847Z,41.10
2023-06-05T10:36:02.867Z,41.40
2023-06-05T10:38:31.875Z,41.40
2023-06-05T10:41:00.995Z,42.60
2023-06-05T10:43:32.177Z,42.00
2023-06-05T10:49:05.469Z,41.00
2023-06-05T10:51:43.987Z,41.40
2023-06-05T10:54:18.716Z,41.20
2023-06-05T10:56:54.912Z,40.60
2023-06-05T10:59:23.625Z,41.30
2023-06-05T11:02:06.324Z,41.20
2023-06-05T11:04:48.837Z,41.00
2023-06-05T11:07:22.312Z,40.40
2023-06-05T11:10:06.244Z,39.80
2023-06-05T11:12:36.398Z,39.70
2023-06-05T11:15:11.121Z,37.50
2023-06-05T11:17:48.231Z,36.80
2023-06-05T11:20:24.328Z,37.00
2023-06-05T11:22:54.444Z,37.30
2023-06-05T11:25:30.789Z,37.20
2023-06-05T11:28:00.808Z,37.40
2023-06-05T11:30:44.061Z,36.70
2023-06-05T11:33:17.330Z,36.90
2023-06-05T11:35:46.679Z,37.60
2023-06-05T11:38:15.554Z,37.70
2023-06-05T11:40:43.882Z,37.50
2023-06-05T11:43:13.382Z,37.00
2023-06-05T11:45:43.703Z,36.70
2023-06-05T11:48:15.158Z,37.00
2023-06-05T11:51:00.186Z,36.90
2023-06-05T11:53:28.629Z,36.70
2023-06-05T11:56:08.483Z,35.70
2023-06-05T11:58:38.696Z,36.10
2023-06-05T12:01:18.960Z,35.20
2023-06-05T12:03:47.431Z,35.00
2023-06-05T12:06:15.421Z,35.10
2023-06-05T12:08:43.309Z,35.40
2023-06-05T12:11:27.480Z,33.70
2023-06-05T12:13:56.357Z,33.10
2023-06-05T12:16:33.529Z,32.90
2023-06-05T12:19:14.219Z,33.00
2023-06-05T12:21:42.841Z,34.10
2023-06-05T12:24:09.754Z,33.70
2023-06-05T12:27:09.259Z,32.20
2023-06-05T12:29:41.592Z,32.50
2023-06-05T12:32:25.532Z,33.50
2023-06-05T12:37:23.155Z,31.40
2023-06-05T12:39:50.096Z,31.70
2023-06-05T12:42:17.083Z,31.00
2023-06-05T12:44:43.926Z,31.40
2023-06-05T12:47:10.943Z,30.30
2023-06-05T12:49:39.545Z,30.00
2023-06-05T12:52:09.909Z,30.30
2023-06-05T12:54:37.560Z,30.00
2023-06-05T12:57:12.446Z,29.10
2023-06-05T12:59:40.247Z,28.90
2023-06-05T13:02:07.199Z,28.70
2023-06-05T13:04:36.169Z,28.70
2023-06-05T13:07:04.242Z,29.20
2023-06-05T13:09:31.603Z,28.30
2023-06-05T13:12:01.542Z,27.50
2023-06-05T13:14:28.535Z,27.20
2023-06-05T13:16:55.613Z,27.30
2023-06-05T13:19:22.733Z,27.50
2023-06-05T13:21:50.360Z,27.50
2023-06-05T13:24:17.378Z,26.30
2023-06-05T13:26:45.105Z,26.90
2023-06-05T13:29:12.365Z,27.60
2023-06-05T13:31:39.325Z,27.80
2023-06-05T13:34:06.855Z,28.30
2023-06-05T13:36:34.810Z,28.20
2023-06-05T13:39:01.794Z,27.70
2023-06-05T13:41:28.742Z,27.40
2023-06-05T13:43:58.948Z,27.60
2023-06-05T13:46:29.016Z,27.60
2023-06-05T13:48:57.525Z,27.50
2023-06-05T13:51:24.615Z,27.30
2023-06-05T13:53:51.551Z,27.10
2023-06-05T13:56:18.577Z,26.70
2023-06-05T13:58:45.512Z,27.10
2023-06-05T14:01:12.453Z,27.00
2023-06-05T14:03:39.504Z,26.50
2023-06-05T14:06:06.947Z,26.20
2023-06-05T14:08:34.376Z,25.50
2023-06-05T14:11:01.533Z,25.20
2023-06-05T14:13:28.430Z,25.00
2023-06-05T14:15:55.529Z,24.60
2023-06-05T14:18:22.859Z,24.90
2023-06-05T14:20:49.750Z,24.90
2023-06-05T14:23:16.673Z,24.90
2023-06-05T14:25:43.508Z,25.00
2023-06-05T14:28:11.477Z,24.40
2023-06-05T14:30:38.519Z,24.40
2023-06-05T14:33:05.570Z,24.90
2023-06-05T14:35:32.680Z,24.80
2023-06-05T14:38:00.007Z,24.50
2023-06-05T14:40:26.866Z,25.20
2023-06-05T14:42:53.867Z,24.50
2023-06-05T14:45:21.069Z,23.90
2023-06-05T14:47:48.515Z,23.80
2023-06-05T14:50:15.711Z,23.60
2023-06-05T14:52:42.565Z,24.00
2023-06-05T14:55:10.111Z,23.80
2023-06-05T14:57:37.620Z,23.90
2023-06-05T15:00:06.159Z,22.30
2023-06-05T15:02:33.565Z,22.10
2023-06-05T15:05:00.626Z,22.10
2023-06-05T15:07:37.902Z,22.10
2023-06-05T15:10:06.224Z,22.10
2023-06-05T15:12:33.047Z,22.60
2023-06-05T15:15:17.868Z,23.00
2023-06-05T15:17:46.707Z,23.30
2023-06-05T15:20:13.667Z,22.30
2023-06-05T15:22:40.660Z,21.60
2023-06-05T15:25:07.935Z,21.00
2023-06-05T15:27:35.967Z,21.50
2023-06-05T15:30:03.286Z,21.70
2023-06-05T15:32:30.783Z,20.90
2023-06-05T15:34:58.585Z,21.00
2023-06-05T15:37:25.900Z,20.30
2023-06-05T15:39:53.421Z,20.70
2023-06-05T15:42:30.280Z,20.60
2023-06-05T15:45:18.568Z,19.60
2023-06-05T15:47:45.659Z,18.40
2023-06-05T15:50:12.545Z,18.20
2023-06-05T15:52:40.626Z,17.70
2023-06-05T15:55:09.508Z,19.70
2023-06-05T15:57:36.432Z,21.00
2023-06-05T16:00:03.727Z,21.40
2023-06-05T16:02:34.485Z,21.70
2023-06-05T16:05:01.845Z,22.10
2023-06-05T16:07:30.513Z,21.90
2023-06-05T16:09:57.661Z,22.00
2023-06-05T16:12:24.448Z,21.50
2023-06-05T16:14:51.350Z,21.40
2023-06-05T16:17:18.459Z,21.20
2023-06-05T16:19:45.583Z,21.50
2023-06-05T16:22:12.516Z,21.10
2023-06-05T16:24:39.445Z,20.60
2023-06-05T16:27:06.834Z,20.80
2023-06-05T16:29:33.779Z,20.70
2023-06-05T16:32:00.574Z,21.10
2023-06-05T16:34:27.746Z,20.70
2023-06-05T16:36:55.106Z,21.10
2023-06-05T16:39:23.055Z,21.40
2023-06-05T16:41:49.924Z,21.00
2023-06-05T16:44:19.103Z,21.30
2023-06-05T16:46:47.116Z,21.40
2023-06-05T16:49:15.859Z,21.20
2023-06-05T16:51:42.882Z,20.30
2023-06-05T16:54:09.757Z,20.40
2023-06-05T16:56:36.528Z,20.60
2023-06-05T16:59:11.646Z,21.10
2023-06-05T17:01:38.991Z,21.20
2023-06-05T17:04:06.235Z,21.30
2023-06-05T17:06:33.538Z,21.40
2023-06-05T17:09:01.580Z,21.40
2023-06-05T17:11:28.649Z,21.40
2023-06-05T17:13:55.578Z,21.40
2023-06-05T17:16:22.584Z,21.30
2023-06-05T17:18:49.563Z,20.90
2023-06-05T17:21:16.520Z,21.20
2023-06-05T17:23:43.446Z,21.40
2023-06-05T17:26:10.893Z,21.10
2023-06-05T17:28:37.699Z,21.00
2023-06-05T17:31:04.908Z,21.10
2023-06-05T17:33:31.757Z,21.10
2023-06-05T17:35:58.718Z,21.10
2023-06-05T17:38:26.533Z,21.30
2023-06-05T17:40:53.493Z,21.40
2023-06-05T17:43:20.489Z,21.30
2023-06-05T17:45:47.511Z,21.50
2023-06-05T17:48:14.453Z,21.20
2023-06-05T17:50:41.548Z,21.70
2023-06-05T17:53:08.564Z,21.70
2023-06-05T17:55:35.501Z,21.70
2023-06-05T17:58:02.637Z,21.80
2023-06-05T18:00:29.726Z,22.00
2023-06-05T18:02:56.712Z,21.90
2023-06-05T18:05:23.858Z,22.20
2023-06-05T18:07:50.806Z,22.30
2023-06-05T18:10:17.713Z,22.40
2023-06-05T18:12:44.632Z,22.70
2023-06-05T18:15:11.683Z,23.00
2023-06-05T18:17:41.046Z,22.80
2023-06-05T18:20:08.786Z,24.40
2023-06-05T18:22:38.777Z,23.60
2023-06-05T18:25:07.865Z,23.90
2023-06-05T18:27:34.762Z,23.90
2023-06-05T18:30:01.610Z,24.00
2023-06-05T18:32:28.613Z,24.00
2023-06-05T18:34:55.761Z,24.10
2023-06-05T18:37:24.194Z,24.10
2023-06-05T18:39:51.165Z,24.10
2023-06-05T18:42:18.939Z,23.90
2023-06-05T18:44:46.360Z,24.00
2023-06-05T18:47:13.214Z,24.30
2023-06-05T18:49:40.358Z,24.50
2023-06-05T18:52:08.151Z,24.80
2023-06-05T18:54:35.062Z,24.40
2023-06-05T18:57:01.926Z,24.30
2023-06-05T18:59:28.803Z,24.50
2023-06-05T19:01:56.296Z,24.70
2023-06-05T19:04:23.229Z,24.90
2023-06-05T19:06:51.467Z,25.10
2023-06-05T19:09:18.375Z,25.20
2023-06-05T19:11:45.450Z,25.30
2023-06-05T19:14:12.323Z,25.60
2023-06-05T19:16:39.258Z,25.90
2023-06-05T19:19:06.369Z,26.10
2023-06-05T19:21:33.148Z,26.70
2023-06-05T19:24:00.245Z,27.20
2023-06-05T19:26:27.414Z,27.20
2023-06-05T19:28:55.690Z,27.10
2023-06-05T19:31:22.597Z,27.50
2023-06-05T19:33:49.566Z,27.50
2023-06-05T19:36:16.457Z,27.80
2023-06-05T19:38:43.308Z,28.00
2023-06-05T19:41:10.833Z,28.10
2023-06-05T19:43:37.986Z,28.70
2023-06-05T19:46:04.955Z,29.00
2023-06-05T19:48:32.002Z,29.00
2023-06-05T19:50:58.877Z,29.40
2023-06-05T19:53:28.808Z,29.50
2023-06-05T19:55:55.754Z,29.70
2023-06-05T19:58:26.533Z,30.00
2023-06-05T20:00:53.543Z,30.40
2023-06-05T20:03:21.194Z,30.80
2023-06-05T20:05:48.184Z,31.20
2023-06-05T20:08:14.994Z,31.50
2023-06-05T20:10:41.854Z,31.80
2023-06-05T20:13:08.701Z,32.30
2023-06-05T20:15:37.981Z,32.40
2023-06-05T20:18:05.339Z,32.70
2023-06-05T20:20:34.023Z,33.00
2023-06-05T20:23:00.944Z,32.90
2023-06-05T20:25:31.737Z,33.10
2023-06-05T20:27:58.454Z,33.00
2023-06-05T20:30:27.825Z,32.60
2023-06-05T20:32:55.677Z,32.50
2023-06-05T20:35:22.926Z,32.70
2023-06-05T20:37:49.986Z,33.00
2023-06-05T20:40:18.807Z,33.50
2023-06-05T20:42:46.790Z,33.70
2023-06-05T20:45:14.701Z,34.10
2023-06-05T20:47:42.231Z,33.90
2023-06-05T20:50:09.893Z,34.60
2023-06-05T20:52:37.072Z,34.80
2023-06-05T20:55:05.145Z,35.10
2023-06-05T20:57:32.013Z,35.70
2023-06-05T20:59:59.237Z,35.80
2023-06-05T21:02:26.230Z,36.10
2023-06-05T21:04:54.052Z,36.30
2023-06-05T21:07:21.013Z,36.80
2023-06-05T21:09:47.844Z,36.80
2023-06-05T21:12:14.840Z,37.20
2023-06-05T21:14:41.680Z,37.50
2023-06-05T21:17:08.786Z,37.50
2023-06-05T21:19:36.000Z,37.60
2023-06-05T21:22:04.948Z,37.70
2023-06-05T21:24:32.803Z,37.10
2023-06-05T21:26:59.876Z,37.10
2023-06-05T21:29:28.499Z,36.80
2023-06-05T21:31:55.712Z,36.50
2023-06-05T21:34:22.681Z,36.20
2023-06-05T21:36:49.586Z,36.20
2023-06-05T21:39:17.651Z,36.50
2023-06-05T21:41:44.770Z,36.60
2023-06-05T21:44:11.726Z,36.60
2023-06-05T21:46:38.969Z,36.70
2023-06-05T21:49:06.101Z,36.90
2023-06-05T21:51:37.816Z,37.10
2023-06-05T21:54:04.787Z,37.30
2023-06-05T21:56:31.665Z,37.40
2023-06-05T21:58:58.944Z,37.50
2023-06-05T22:01:25.827Z,37.70
2023-06-05T22:03:52.999Z,38.00
2023-06-05T22:06:19.887Z,38.40
2023-06-05T22:08:47.731Z,38.60
2023-06-05T22:11:14.972Z,39.00
2023-06-05T22:13:43.083Z,39.40
2023-06-05T22:16:10.318Z,39.20
2023-06-05T22:18:42.333Z,39.40
2023-06-05T22:21:14.503Z,39.50
2023-06-05T22:23:43.213Z,39.80
2023-06-05T22:26:10.118Z,40.00
2023-06-05T22:28:37.127Z,39.80
2023-06-05T22:31:04.160Z,40.10
2023-06-05T22:33:33.407Z,40.30
2023-06-05T22:36:01.887Z,40.40
2023-06-05T22:38:28.987Z,40.60
2023-06-05T22:40:55.807Z,40.70
2023-06-05T22:43:22.953Z,40.70
2023-06-05T22:45:50.619Z,40.90
2023-06-05T22:48:20.687Z,40.90
2023-06-05T22:50:54.298Z,41.20
2023-06-05T22:53:22.081Z,41.20
2023-06-05T22:55:48.899Z,41.60
2023-06-05T22:58:16.096Z,41.70
2023-06-05T23:00:44.289Z,41.80
2023-06-05T23:03:12.774Z,41.80
2023-06-05T23:05:41.598Z,42.00
2023-06-05T23:08:08.501Z,42.20
2023-06-05T23:10:35.492Z,42.40
2023-06-05T23:13:02.563Z,42.60
2023-06-05T23:15:29.808Z,42.70
2023-06-05T23:17:56.922Z,42.70
2023-06-05T23:20:23.816Z,42.60
2023-06-05T23:22:50.679Z,42.50
2023-06-05T23:25:17.815Z,44.10
2023-06-05T23:27:44.717Z,43.10
2023-06-05T23:30:12.021Z,44.40
2023-06-05T23:32:39.001Z,43.20
2023-06-05T23:35:06.809Z,43.30
2023-06-05T23:37:33.729Z,43.30
2023-06-05T23:40:00.721Z,43.30
2023-06-05T23:42:28.160Z,43.00
2023-06-05T23:44:54.979Z,43.00
2023-06-05T23:47:21.894Z,43.10
2023-06-05T23:49:48.883Z,42.90
2023-06-05T23:52:16.348Z,43.10
2023-06-05T23:54:44.486Z,43.30
2023-06-05T23:57:13.713Z,43.50
2023-06-05T23:59:40.831Z,43.80
